• Join FlightAware (Why Join?)
  • Login
  • US Flag 
03:34PM EDT


 

Airport Tracker/Info


-or-


 

Live Flight TrackerFlight Track Log ✈ KAP819 ✈ 23-Jun-2013 ✈ KALB - KBOS

Flight Track Log - Related Links

Times and Time Zones

All times are in EDT time to prevent confusion due to time zone crossing. See the KAP819 flight status page for this flight to view local times or setup timezone preferences in your user account.

Time Position Orientation Groundspeed Altitude Reporting Facility
EDT Latitude Longitude Course Direction KTS MPH feet Rate Location/Type
10:46AM 42.7297 -73.8025 144° Southeast 127 146 800  Level Boston Center
10:48AM 42.6969 -73.7706 144° Southeast 116 133 1,800 600 Climbing Boston Center
10:49AM 42.6744 -73.7392 134° Southeast 121 139 2,300 540 Climbing Boston Center
10:50AM 42.6686 -73.6881 99° East 137 158 3,000 540 Climbing Boston Center
10:50AM 42.6814 -73.6603 58° Northeast 146 168 3,300 420 Climbing Boston Center
10:51AM 42.6944 -73.6125 70° East 151 174 3,700 480 Climbing Boston Center
10:52AM 42.7181 -73.5450 65° Northeast 153 176 4,400 480 Climbing Boston Center
10:54AM 42.7503 -73.4522 65° Northeast 157 181 5,200 420 Climbing Boston Center
10:55AM 42.7694 -73.3961 65° Northeast 157 181 5,700 420 Climbing Boston Center
10:56AM 42.7783 -73.3397 78° East 157 181 6,100 420 Climbing Boston Center
10:57AM 42.7619 -73.2828 111° Southeast 145 167 6,600 360 Climbing Boston Center
10:58AM 42.7519 -73.2206 102° East 150 173 6,900 240 Climbing Boston Center
10:59AM 42.7400 -73.1581 105° East 166 191 7,100 60 Climbing Boston Center
11:00AM 42.7278 -73.0872 103° East 177 204 7,100  Level Boston Center
11:01AM 42.7136 -73.0164 105° East 188 216 7,100 -60 Level Boston Center
11:02AM 42.7036 -72.9542 102° East 188 216 7,000  Descending Boston Center
11:03AM 42.6914 -72.8808 103° East 188 216 7,100  Climbing Boston Center
11:04AM 42.6750 -72.8100 107° East 188 216 7,000  Descending Boston Center
11:05AM 42.6647 -72.7367 101° East 188 216 7,100  Climbing Boston Center
11:06AM 42.6608 -72.6603 94° East 188 216 7,000 -60 Descending Boston Center
11:07AM 42.6586 -72.5842 92° East 194 223 7,000  Level Boston Center
11:08AM 42.6567 -72.5078 92° East 199 229 7,000  Level Boston Center
11:09AM 42.6547 -72.4344 92° East 199 229 7,000 -60 Level Boston Center
11:10AM 42.6442 -72.3639 101° East 199 229 6,900 -240 Descending Boston Center
11:11AM 42.6275 -72.2850 106° East 199 229 6,600 -300 Descending Boston Center
11:12AM 42.6106 -72.2144 108° East 207 238 6,300 -420 Descending Boston Center
11:13AM 42.5939 -72.1356 106° East 207 238 5,800 -420 Descending Boston Center
11:14AM 42.5811 -72.0650 104° East 207 238 5,500 -180 Descending Boston Center
11:15AM 42.5683 -71.9892 103° East 196 226 5,500  Level Boston Center
11:16AM 42.5533 -71.9186 106° East 196 226 5,500  Level Boston Center
11:17AM 42.5364 -71.8511 109° East 191 220 5,500  Level Boston Center
11:18AM 42.5236 -71.7808 104° East 186 214 5,500  Level Boston Center
11:19AM 42.5086 -71.7136 107° East 186 214 5,500  Level Boston Center
11:20AM 42.4956 -71.6461 105° East 186 214 5,600  Climbing Boston Center
11:21AM 42.4825 -71.5786 105° East 186 214 5,500 -60 Descending Boston Center
11:22AM 42.4667 -71.5333 115° Southeast 188 216 5,500  Level KA90
11:23AM 42.4667 -71.4667 90° East 189 217 5,500  Level KA90
11:24AM 42.4667 -71.4000 90° East 194 223 5,500  Level KA90
11:25AM 42.4833 -71.3333 71° East 192 221 5,500 -240 Level KA90
11:26AM 42.5000 -71.2500 75° East 208 239 5,100 -480 Descending KA90
11:27AM 42.5000 -71.1833 90° East 201 231 4,600 -780 Descending KA90
11:28AM 42.4833 -71.1000 105° East 205 236 3,500 -1,080 Descending KA90
11:29AM 42.4500 -71.0333 124° Southeast 192 221 2,400 -1,200 Descending KA90
11:30AM 42.4167 -71.0000 144° Southeast 167 192 1,300 -1,080 Descending KA90
11:31AM 42.3833 -71.0000 180° South 142 163 400 -900 Descending KA90
11:33AM 42.3630 -71.0064 204° Southwest  Level Estimated
11:40AM 42.3630 -71.0064 204° Southwest  Level Estimated